sensor_id;sensor_type;location;lat;lon;timestamp;P1;durP1;ratioP1;P2;durP2;ratioP2
19691;SDS011;42748;50.016;19.890;2024-01-06T00:00:26;133.60;;;43.90;;
19691;SDS011;42748;50.016;19.890;2024-01-06T00:02:54;139.57;;;44.03;;
19691;SDS011;42748;50.016;19.890;2024-01-06T00:05:22;138.63;;;43.20;;
19691;SDS011;42748;50.016;19.890;2024-01-06T00:07:50;131.37;;;43.50;;
19691;SDS011;42748;50.016;19.890;2024-01-06T00:10:18;145.40;;;46.07;;
19691;SDS011;42748;50.016;19.890;2024-01-06T00:12:46;142.70;;;44.97;;
19691;SDS011;42748;50.016;19.890;2024-01-06T00:15:15;150.50;;;45.87;;
19691;SDS011;42748;50.016;19.890;2024-01-06T00:17:43;146.33;;;46.03;;
19691;SDS011;42748;50.016;19.890;2024-01-06T00:20:10;144.53;;;44.90;;
19691;SDS011;42748;50.016;19.890;2024-01-06T00:22:38;136.60;;;44.27;;
19691;SDS011;42748;50.016;19.890;2024-01-06T00:25:07;147.73;;;45.73;;
19691;SDS011;42748;50.016;19.890;2024-01-06T00:27:35;147.73;;;47.43;;
19691;SDS011;42748;50.016;19.890;2024-01-06T00:30:03;147.37;;;44.33;;
19691;SDS011;42748;50.016;19.890;2024-01-06T00:32:31;139.70;;;44.70;;
19691;SDS011;42748;50.016;19.890;2024-01-06T00:35:01;141.87;;;44.10;;
19691;SDS011;42748;50.016;19.890;2024-01-06T00:37:29;136.37;;;43.63;;
19691;SDS011;42748;50.016;19.890;2024-01-06T00:39:57;134.67;;;42.60;;
19691;SDS011;42748;50.016;19.890;2024-01-06T00:42:25;140.00;;;44.43;;
19691;SDS011;42748;50.016;19.890;2024-01-06T00:44:53;140.70;;;43.10;;
19691;SDS011;42748;50.016;19.890;2024-01-06T00:47:22;130.33;;;41.07;;
19691;SDS011;42748;50.016;19.890;2024-01-06T00:49:51;129.83;;;41.83;;
19691;SDS011;42748;50.016;19.890;2024-01-06T00:52:18;123.23;;;42.70;;
19691;SDS011;42748;50.016;19.890;2024-01-06T00:54:46;122.47;;;41.07;;
19691;SDS011;42748;50.016;19.890;2024-01-06T00:57:13;134.57;;;42.00;;
19691;SDS011;42748;50.016;19.890;2024-01-06T00:59:41;129.70;;;41.40;;
19691;SDS011;42748;50.016;19.890;2024-01-06T01:02:09;133.00;;;42.80;;
19691;SDS011;42748;50.016;19.890;2024-01-06T01:04:36;134.07;;;42.70;;
19691;SDS011;42748;50.016;19.890;2024-01-06T01:07:04;134.83;;;41.70;;
19691;SDS011;42748;50.016;19.890;2024-01-06T01:09:31;130.47;;;42.87;;
19691;SDS011;42748;50.016;19.890;2024-01-06T01:11:59;135.47;;;42.00;;
19691;SDS011;42748;50.016;19.890;2024-01-06T01:14:27;140.13;;;44.20;;
19691;SDS011;42748;50.016;19.890;2024-01-06T01:16:55;138.50;;;43.20;;
19691;SDS011;42748;50.016;19.890;2024-01-06T01:19:22;132.30;;;42.57;;
19691;SDS011;42748;50.016;19.890;2024-01-06T01:21:50;142.63;;;43.93;;
19691;SDS011;42748;50.016;19.890;2024-01-06T01:24:22;145.90;;;44.10;;
19691;SDS011;42748;50.016;19.890;2024-01-06T01:26:50;140.27;;;44.30;;
19691;SDS011;42748;50.016;19.890;2024-01-06T01:29:17;144.83;;;45.20;;
19691;SDS011;42748;50.016;19.890;2024-01-06T01:31:47;141.67;;;44.80;;
19691;SDS011;42748;50.016;19.890;2024-01-06T01:34:14;142.90;;;44.67;;
19691;SDS011;42748;50.016;19.890;2024-01-06T01:36:42;147.60;;;45.20;;
19691;SDS011;42748;50.016;19.890;2024-01-06T01:39:10;141.33;;;45.10;;
19691;SDS011;42748;50.016;19.890;2024-01-06T01:41:39;144.23;;;43.97;;
19691;SDS011;42748;50.016;19.890;2024-01-06T01:44:07;141.97;;;44.20;;
19691;SDS011;42748;50.016;19.890;2024-01-06T01:46:34;135.27;;;42.23;;
19691;SDS011;42748;50.016;19.890;2024-01-06T01:49:02;137.70;;;43.50;;
19691;SDS011;42748;50.016;19.890;2024-01-06T01:51:32;132.17;;;42.70;;
19691;SDS011;42748;50.016;19.890;2024-01-06T01:54:01;134.43;;;43.50;;
19691;SDS011;42748;50.016;19.890;2024-01-06T01:56:31;134.53;;;42.27;;
19691;SDS011;42748;50.016;19.890;2024-01-06T01:59:04;133.77;;;42.03;;
19691;SDS011;42748;50.016;19.890;2024-01-06T02:01:33;140.80;;;43.17;;
19691;SDS011;42748;50.016;19.890;2024-01-06T02:04:01;127.07;;;41.07;;
19691;SDS011;42748;50.016;19.890;2024-01-06T02:06:28;132.60;;;42.77;;
19691;SDS011;42748;50.016;19.890;2024-01-06T02:08:56;132.27;;;41.23;;
19691;SDS011;42748;50.016;19.890;2024-01-06T02:11:24;132.67;;;42.47;;
19691;SDS011;42748;50.016;19.890;2024-01-06T02:13:51;129.33;;;40.90;;
19691;SDS011;42748;50.016;19.890;2024-01-06T02:16:19;139.23;;;41.67;;
19691;SDS011;42748;50.016;19.890;2024-01-06T02:18:47;132.07;;;41.20;;
19691;SDS011;42748;50.016;19.890;2024-01-06T02:21:16;123.53;;;40.03;;
19691;SDS011;42748;50.016;19.890;2024-01-06T02:23:44;128.77;;;41.73;;
19691;SDS011;42748;50.016;19.890;2024-01-06T02:26:12;136.27;;;41.03;;
19691;SDS011;42748;50.016;19.890;2024-01-06T02:28:41;128.77;;;41.13;;
19691;SDS011;42748;50.016;19.890;2024-01-06T02:31:12;126.30;;;41.00;;
19691;SDS011;42748;50.016;19.890;2024-01-06T02:33:39;139.20;;;43.77;;
19691;SDS011;42748;50.016;19.890;2024-01-06T02:36:07;128.90;;;42.13;;
19691;SDS011;42748;50.016;19.890;2024-01-06T02:38:35;142.23;;;43.30;;
19691;SDS011;42748;50.016;19.890;2024-01-06T02:41:02;142.00;;;45.87;;
19691;SDS011;42748;50.016;19.890;2024-01-06T02:43:30;153.67;;;45.80;;
19691;SDS011;42748;50.016;19.890;2024-01-06T02:45:57;149.53;;;44.60;;
19691;SDS011;42748;50.016;19.890;2024-01-06T02:48:26;153.33;;;47.93;;
19691;SDS011;42748;50.016;19.890;2024-01-06T02:50:53;161.60;;;47.77;;
19691;SDS011;42748;50.016;19.890;2024-01-06T02:53:21;168.43;;;49.40;;
19691;SDS011;42748;50.016;19.890;2024-01-06T02:55:49;162.37;;;50.37;;
19691;SDS011;42748;50.016;19.890;2024-01-06T02:58:17;158.00;;;50.00;;
19691;SDS011;42748;50.016;19.890;2024-01-06T03:00:44;159.03;;;50.10;;
19691;SDS011;42748;50.016;19.890;2024-01-06T03:03:12;157.73;;;48.17;;
19691;SDS011;42748;50.016;19.890;2024-01-06T03:05:40;143.17;;;48.20;;
19691;SDS011;42748;50.016;19.890;2024-01-06T03:08:07;148.53;;;48.60;;
19691;SDS011;42748;50.016;19.890;2024-01-06T03:10:35;157.10;;;47.67;;
19691;SDS011;42748;50.016;19.890;2024-01-06T03:13:03;145.33;;;47.13;;
19691;SDS011;42748;50.016;19.890;2024-01-06T03:15:30;139.87;;;46.10;;
19691;SDS011;42748;50.016;19.890;2024-01-06T03:17:58;139.30;;;45.00;;
19691;SDS011;42748;50.016;19.890;2024-01-06T03:20:26;136.53;;;45.70;;
19691;SDS011;42748;50.016;19.890;2024-01-06T03:22:53;138.43;;;45.13;;
19691;SDS011;42748;50.016;19.890;2024-01-06T03:25:21;135.47;;;45.33;;
19691;SDS011;42748;50.016;19.890;2024-01-06T03:27:49;144.00;;;45.67;;
19691;SDS011;42748;50.016;19.890;2024-01-06T03:30:16;133.50;;;45.60;;
19691;SDS011;42748;50.016;19.890;2024-01-06T03:32:44;129.97;;;42.90;;
19691;SDS011;42748;50.016;19.890;2024-01-06T03:35:11;134.93;;;45.43;;
19691;SDS011;42748;50.016;19.890;2024-01-06T03:37:39;129.10;;;45.57;;
19691;SDS011;42748;50.016;19.890;2024-01-06T03:40:07;130.23;;;44.93;;
19691;SDS011;42748;50.016;19.890;2024-01-06T03:42:35;123.33;;;44.17;;
19691;SDS011;42748;50.016;19.890;2024-01-06T03:45:03;120.03;;;42.87;;
19691;SDS011;42748;50.016;19.890;2024-01-06T03:47:31;118.17;;;43.37;;
19691;SDS011;42748;50.016;19.890;2024-01-06T03:49:58;111.73;;;43.00;;
19691;SDS011;42748;50.016;19.890;2024-01-06T03:52:26;111.97;;;41.67;;
19691;SDS011;42748;50.016;19.890;2024-01-06T03:54:53;112.27;;;41.60;;
19691;SDS011;42748;50.016;19.890;2024-01-06T03:57:22;109.30;;;42.87;;
19691;SDS011;42748;50.016;19.890;2024-01-06T03:59:52;113.10;;;42.30;;
19691;SDS011;42748;50.016;19.890;2024-01-06T04:02:26;106.10;;;42.10;;
19691;SDS011;42748;50.016;19.890;2024-01-06T04:04:54;107.20;;;42.47;;
19691;SDS011;42748;50.016;19.890;2024-01-06T04:07:21;112.60;;;43.63;;
19691;SDS011;42748;50.016;19.890;2024-01-06T04:09:49;108.00;;;43.20;;
19691;SDS011;42748;50.016;19.890;2024-01-06T04:12:16;116.03;;;45.03;;
19691;SDS011;42748;50.016;19.890;2024-01-06T04:14:44;119.33;;;46.70;;
19691;SDS011;42748;50.016;19.890;2024-01-06T04:17:11;129.20;;;49.50;;
19691;SDS011;42748;50.016;19.890;2024-01-06T04:19:39;127.67;;;46.43;;
19691;SDS011;42748;50.016;19.890;2024-01-06T04:22:07;115.63;;;46.40;;
19691;SDS011;42748;50.016;19.890;2024-01-06T04:24:34;121.13;;;45.73;;
19691;SDS011;42748;50.016;19.890;2024-01-06T04:27:04;114.37;;;45.10;;
19691;SDS011;42748;50.016;19.890;2024-01-06T04:29:32;117.80;;;45.93;;
19691;SDS011;42748;50.016;19.890;2024-01-06T04:31:59;117.23;;;45.37;;
19691;SDS011;42748;50.016;19.890;2024-01-06T04:34:27;114.63;;;46.07;;
19691;SDS011;42748;50.016;19.890;2024-01-06T04:36:54;120.73;;;47.07;;
19691;SDS011;42748;50.016;19.890;2024-01-06T04:39:22;121.77;;;45.23;;
19691;SDS011;42748;50.016;19.890;2024-01-06T04:41:50;115.87;;;45.30;;
19691;SDS011;42748;50.016;19.890;2024-01-06T04:44:24;113.93;;;45.97;;
19691;SDS011;42748;50.016;19.890;2024-01-06T04:46:51;119.77;;;46.33;;
19691;SDS011;42748;50.016;19.890;2024-01-06T04:49:19;113.47;;;45.37;;
19691;SDS011;42748;50.016;19.890;2024-01-06T04:51:47;116.13;;;43.90;;
19691;SDS011;42748;50.016;19.890;2024-01-06T04:54:15;119.57;;;46.37;;
19691;SDS011;42748;50.016;19.890;2024-01-06T04:56:43;116.90;;;44.23;;
19691;SDS011;42748;50.016;19.890;2024-01-06T04:59:10;120.60;;;45.63;;
19691;SDS011;42748;50.016;19.890;2024-01-06T05:01:38;119.20;;;45.77;;
19691;SDS011;42748;50.016;19.890;2024-01-06T05:04:05;112.27;;;44.40;;
19691;SDS011;42748;50.016;19.890;2024-01-06T05:06:33;114.90;;;45.23;;
19691;SDS011;42748;50.016;19.890;2024-01-06T05:09:00;114.60;;;45.40;;
19691;SDS011;42748;50.016;19.890;2024-01-06T05:11:28;110.83;;;44.37;;
19691;SDS011;42748;50.016;19.890;2024-01-06T05:13:55;108.63;;;44.80;;
19691;SDS011;42748;50.016;19.890;2024-01-06T05:16:23;116.33;;;45.13;;
19691;SDS011;42748;50.016;19.890;2024-01-06T05:18:50;108.40;;;42.87;;
19691;SDS011;42748;50.016;19.890;2024-01-06T05:21:18;105.50;;;43.33;;
19691;SDS011;42748;50.016;19.890;2024-01-06T05:23:46;108.10;;;43.77;;
19691;SDS011;42748;50.016;19.890;2024-01-06T05:26:13;112.27;;;44.67;;
19691;SDS011;42748;50.016;19.890;2024-01-06T05:28:41;106.00;;;42.37;;
19691;SDS011;42748;50.016;19.890;2024-01-06T05:31:08;107.77;;;43.63;;
19691;SDS011;42748;50.016;19.890;2024-01-06T05:33:36;104.27;;;43.27;;
19691;SDS011;42748;50.016;19.890;2024-01-06T05:36:04;109.77;;;43.53;;
19691;SDS011;42748;50.016;19.890;2024-01-06T05:38:31;104.00;;;42.03;;
19691;SDS011;42748;50.016;19.890;2024-01-06T05:40:59;103.70;;;42.70;;
19691;SDS011;42748;50.016;19.890;2024-01-06T05:43:26;107.53;;;42.97;;
19691;SDS011;42748;50.016;19.890;2024-01-06T05:45:54;107.73;;;44.43;;
19691;SDS011;42748;50.016;19.890;2024-01-06T05:48:21;111.17;;;43.33;;
19691;SDS011;42748;50.016;19.890;2024-01-06T05:50:50;112.10;;;44.50;;
19691;SDS011;42748;50.016;19.890;2024-01-06T05:53:17;115.13;;;45.83;;
19691;SDS011;42748;50.016;19.890;2024-01-06T05:55:45;105.90;;;42.87;;
19691;SDS011;42748;50.016;19.890;2024-01-06T05:58:12;110.30;;;43.57;;
19691;SDS011;42748;50.016;19.890;2024-01-06T06:00:40;110.97;;;44.47;;
19691;SDS011;42748;50.016;19.890;2024-01-06T06:03:08;116.00;;;45.80;;
19691;SDS011;42748;50.016;19.890;2024-01-06T06:05:35;109.67;;;43.77;;
19691;SDS011;42748;50.016;19.890;2024-01-06T06:08:03;113.70;;;46.07;;
19691;SDS011;42748;50.016;19.890;2024-01-06T06:10:31;118.57;;;45.53;;
19691;SDS011;42748;50.016;19.890;2024-01-06T06:13:08;118.37;;;44.97;;
19691;SDS011;42748;50.016;19.890;2024-01-06T06:15:37;118.10;;;46.30;;
19691;SDS011;42748;50.016;19.890;2024-01-06T06:18:05;112.53;;;44.40;;
19691;SDS011;42748;50.016;19.890;2024-01-06T06:20:33;112.70;;;45.07;;
19691;SDS011;42748;50.016;19.890;2024-01-06T06:23:00;105.67;;;44.20;;
19691;SDS011;42748;50.016;19.890;2024-01-06T06:25:28;111.30;;;43.43;;
19691;SDS011;42748;50.016;19.890;2024-01-06T06:27:55;109.97;;;45.60;;
19691;SDS011;42748;50.016;19.890;2024-01-06T06:30:23;110.87;;;44.97;;
19691;SDS011;42748;50.016;19.890;2024-01-06T06:32:51;107.73;;;44.50;;
19691;SDS011;42748;50.016;19.890;2024-01-06T06:35:18;111.73;;;45.73;;
19691;SDS011;42748;50.016;19.890;2024-01-06T06:37:47;110.93;;;45.40;;
19691;SDS011;42748;50.016;19.890;2024-01-06T06:40:15;113.67;;;45.60;;
19691;SDS011;42748;50.016;19.890;2024-01-06T06:42:43;113.37;;;44.67;;
19691;SDS011;42748;50.016;19.890;2024-01-06T06:45:10;109.53;;;45.27;;
19691;SDS011;42748;50.016;19.890;2024-01-06T06:47:39;112.13;;;45.40;;
19691;SDS011;42748;50.016;19.890;2024-01-06T06:50:06;116.80;;;46.20;;
19691;SDS011;42748;50.016;19.890;2024-01-06T06:52:34;116.07;;;45.67;;
19691;SDS011;42748;50.016;19.890;2024-01-06T06:55:01;114.03;;;45.10;;
19691;SDS011;42748;50.016;19.890;2024-01-06T06:57:29;111.70;;;44.20;;
19691;SDS011;42748;50.016;19.890;2024-01-06T06:59:57;110.90;;;44.47;;
19691;SDS011;42748;50.016;19.890;2024-01-06T07:02:24;109.23;;;44.50;;
19691;SDS011;42748;50.016;19.890;2024-01-06T07:04:52;108.17;;;43.40;;
19691;SDS011;42748;50.016;19.890;2024-01-06T07:07:20;104.73;;;41.80;;
19691;SDS011;42748;50.016;19.890;2024-01-06T07:09:47;105.80;;;43.37;;
19691;SDS011;42748;50.016;19.890;2024-01-06T07:12:15;107.53;;;43.10;;
19691;SDS011;42748;50.016;19.890;2024-01-06T07:14:42;104.57;;;41.93;;
19691;SDS011;42748;50.016;19.890;2024-01-06T07:17:10;103.33;;;42.43;;
19691;SDS011;42748;50.016;19.890;2024-01-06T07:19:37;103.60;;;42.50;;
19691;SDS011;42748;50.016;19.890;2024-01-06T07:22:05;106.13;;;42.57;;
19691;SDS011;42748;50.016;19.890;2024-01-06T07:24:33;106.47;;;41.53;;
19691;SDS011;42748;50.016;19.890;2024-01-06T07:27:02;100.37;;;41.50;;
19691;SDS011;42748;50.016;19.890;2024-01-06T07:29:30;100.43;;;42.60;;
19691;SDS011;42748;50.016;19.890;2024-01-06T07:31:58;111.90;;;42.87;;
19691;SDS011;42748;50.016;19.890;2024-01-06T07:34:25;114.23;;;42.67;;
19691;SDS011;42748;50.016;19.890;2024-01-06T07:36:53;113.10;;;44.43;;
19691;SDS011;42748;50.016;19.890;2024-01-06T07:39:21;108.13;;;43.60;;
19691;SDS011;42748;50.016;19.890;2024-01-06T07:41:48;111.47;;;44.53;;
19691;SDS011;42748;50.016;19.890;2024-01-06T07:44:16;118.20;;;46.63;;
19691;SDS011;42748;50.016;19.890;2024-01-06T07:46:49;117.07;;;46.03;;
19691;SDS011;42748;50.016;19.890;2024-01-06T07:49:17;114.53;;;44.83;;
19691;SDS011;42748;50.016;19.890;2024-01-06T07:51:45;113.10;;;45.03;;
19691;SDS011;42748;50.016;19.890;2024-01-06T07:54:12;110.87;;;43.13;;
19691;SDS011;42748;50.016;19.890;2024-01-06T07:56:40;105.57;;;41.43;;
19691;SDS011;42748;50.016;19.890;2024-01-06T07:59:09;107.80;;;42.13;;
19691;SDS011;42748;50.016;19.890;2024-01-06T08:01:37;101.20;;;42.53;;
19691;SDS011;42748;50.016;19.890;2024-01-06T08:04:05;105.30;;;43.10;;
19691;SDS011;42748;50.016;19.890;2024-01-06T08:06:33;99.70;;;41.57;;
19691;SDS011;42748;50.016;19.890;2024-01-06T08:09:02;98.60;;;39.90;;
19691;SDS011;42748;50.016;19.890;2024-01-06T08:11:30;103.47;;;41.17;;
19691;SDS011;42748;50.016;19.890;2024-01-06T08:13:57;104.57;;;42.43;;
19691;SDS011;42748;50.016;19.890;2024-01-06T08:16:25;94.57;;;39.07;;
19691;SDS011;42748;50.016;19.890;2024-01-06T08:18:53;101.33;;;40.00;;
19691;SDS011;42748;50.016;19.890;2024-01-06T08:21:21;94.13;;;39.33;;
19691;SDS011;42748;50.016;19.890;2024-01-06T08:23:48;98.33;;;39.50;;
19691;SDS011;42748;50.016;19.890;2024-01-06T08:26:16;95.60;;;39.17;;
19691;SDS011;42748;50.016;19.890;2024-01-06T08:28:44;94.07;;;38.17;;
19691;SDS011;42748;50.016;19.890;2024-01-06T08:31:11;86.83;;;37.67;;
19691;SDS011;42748;50.016;19.890;2024-01-06T08:33:39;89.53;;;38.77;;
19691;SDS011;42748;50.016;19.890;2024-01-06T08:36:07;93.63;;;39.03;;
19691;SDS011;42748;50.016;19.890;2024-01-06T08:38:36;93.00;;;39.17;;
19691;SDS011;42748;50.016;19.890;2024-01-06T08:41:03;96.60;;;39.50;;
19691;SDS011;42748;50.016;19.890;2024-01-06T08:43:31;99.53;;;41.23;;
19691;SDS011;42748;50.016;19.890;2024-01-06T08:45:59;93.57;;;40.23;;
19691;SDS011;42748;50.016;19.890;2024-01-06T08:48:27;100.17;;;41.47;;
19691;SDS011;42748;50.016;19.890;2024-01-06T08:50:58;106.57;;;42.87;;
19691;SDS011;42748;50.016;19.890;2024-01-06T08:53:25;95.03;;;40.97;;
19691;SDS011;42748;50.016;19.890;2024-01-06T08:55:53;104.93;;;42.30;;
19691;SDS011;42748;50.016;19.890;2024-01-06T08:58:20;98.43;;;41.10;;
19691;SDS011;42748;50.016;19.890;2024-01-06T09:00:48;108.10;;;42.93;;
19691;SDS011;42748;50.016;19.890;2024-01-06T09:03:16;105.00;;;43.37;;
19691;SDS011;42748;50.016;19.890;2024-01-06T09:05:44;100.83;;;41.27;;
19691;SDS011;42748;50.016;19.890;2024-01-06T09:08:12;107.57;;;43.27;;
19691;SDS011;42748;50.016;19.890;2024-01-06T09:10:40;99.90;;;41.50;;
19691;SDS011;42748;50.016;19.890;2024-01-06T09:13:09;100.47;;;42.43;;
19691;SDS011;42748;50.016;19.890;2024-01-06T09:15:36;95.43;;;41.10;;
19691;SDS011;42748;50.016;19.890;2024-01-06T09:18:04;98.73;;;40.67;;
19691;SDS011;42748;50.016;19.890;2024-01-06T09:20:32;95.40;;;39.87;;
19691;SDS011;42748;50.016;19.890;2024-01-06T09:22:59;99.37;;;40.20;;
19691;SDS011;42748;50.016;19.890;2024-01-06T09:25:27;107.30;;;42.30;;
19691;SDS011;42748;50.016;19.890;2024-01-06T09:27:55;98.00;;;39.20;;
19691;SDS011;42748;50.016;19.890;2024-01-06T09:30:22;98.13;;;41.67;;
19691;SDS011;42748;50.016;19.890;2024-01-06T09:32:50;100.87;;;41.50;;
19691;SDS011;42748;50.016;19.890;2024-01-06T09:35:18;105.87;;;43.10;;
19691;SDS011;42748;50.016;19.890;2024-01-06T09:37:46;106.37;;;42.30;;
19691;SDS011;42748;50.016;19.890;2024-01-06T09:40:16;107.90;;;42.93;;
19691;SDS011;42748;50.016;19.890;2024-01-06T09:42:48;108.67;;;43.60;;
19691;SDS011;42748;50.016;19.890;2024-01-06T09:45:16;104.23;;;43.10;;
19691;SDS011;42748;50.016;19.890;2024-01-06T09:47:44;105.80;;;41.23;;
19691;SDS011;42748;50.016;19.890;2024-01-06T09:50:13;113.53;;;44.13;;
19691;SDS011;42748;50.016;19.890;2024-01-06T09:52:41;102.97;;;42.37;;
19691;SDS011;42748;50.016;19.890;2024-01-06T09:55:10;106.10;;;43.77;;
19691;SDS011;42748;50.016;19.890;2024-01-06T09:57:38;104.53;;;42.77;;
19691;SDS011;42748;50.016;19.890;2024-01-06T10:00:06;99.80;;;41.97;;
19691;SDS011;42748;50.016;19.890;2024-01-06T10:02:37;104.03;;;41.77;;
19691;SDS011;42748;50.016;19.890;2024-01-06T10:05:06;94.57;;;41.60;;
19691;SDS011;42748;50.016;19.890;2024-01-06T10:07:34;101.97;;;41.47;;
19691;SDS011;42748;50.016;19.890;2024-01-06T10:10:02;104.20;;;41.80;;
19691;SDS011;42748;50.016;19.890;2024-01-06T10:12:30;96.37;;;40.97;;
19691;SDS011;42748;50.016;19.890;2024-01-06T10:14:59;96.07;;;40.07;;
19691;SDS011;42748;50.016;19.890;2024-01-06T10:17:26;94.40;;;38.10;;
19691;SDS011;42748;50.016;19.890;2024-01-06T10:19:55;85.47;;;38.07;;
19691;SDS011;42748;50.016;19.890;2024-01-06T10:22:23;82.10;;;35.77;;
19691;SDS011;42748;50.016;19.890;2024-01-06T10:24:51;83.20;;;36.43;;
19691;SDS011;42748;50.016;19.890;2024-01-06T10:27:19;88.33;;;37.63;;
19691;SDS011;42748;50.016;19.890;2024-01-06T10:29:46;84.40;;;36.13;;
19691;SDS011;42748;50.016;19.890;2024-01-06T10:32:14;83.53;;;36.63;;
19691;SDS011;42748;50.016;19.890;2024-01-06T10:34:43;88.80;;;36.87;;
19691;SDS011;42748;50.016;19.890;2024-01-06T10:37:11;81.77;;;35.80;;
19691;SDS011;42748;50.016;19.890;2024-01-06T10:39:39;86.57;;;37.20;;
19691;SDS011;42748;50.016;19.890;2024-01-06T10:42:06;86.07;;;37.07;;
19691;SDS011;42748;50.016;19.890;2024-01-06T10:44:34;83.93;;;36.47;;
19691;SDS011;42748;50.016;19.890;2024-01-06T10:47:02;89.10;;;37.47;;
19691;SDS011;42748;50.016;19.890;2024-01-06T10:49:30;81.80;;;36.87;;
19691;SDS011;42748;50.016;19.890;2024-01-06T10:51:58;84.50;;;35.47;;
19691;SDS011;42748;50.016;19.890;2024-01-06T10:54:27;83.47;;;36.00;;
19691;SDS011;42748;50.016;19.890;2024-01-06T10:56:55;87.00;;;37.07;;
19691;SDS011;42748;50.016;19.890;2024-01-06T10:59:24;89.50;;;38.23;;
19691;SDS011;42748;50.016;19.890;2024-01-06T11:01:53;89.03;;;37.60;;
19691;SDS011;42748;50.016;19.890;2024-01-06T11:04:22;88.80;;;37.70;;
19691;SDS011;42748;50.016;19.890;2024-01-06T11:06:50;95.10;;;39.47;;
19691;SDS011;42748;50.016;19.890;2024-01-06T11:09:22;88.60;;;38.43;;
19691;SDS011;42748;50.016;19.890;2024-01-06T11:11:52;94.43;;;39.43;;
19691;SDS011;42748;50.016;19.890;2024-01-06T11:14:26;90.73;;;38.23;;
19691;SDS011;42748;50.016;19.890;2024-01-06T11:16:54;90.63;;;38.57;;
19691;SDS011;42748;50.016;19.890;2024-01-06T11:24:47;91.37;;;37.97;;
19691;SDS011;42748;50.016;19.890;2024-01-06T11:27:20;91.97;;;39.27;;
19691;SDS011;42748;50.016;19.890;2024-01-06T11:29:52;92.17;;;38.90;;
19691;SDS011;42748;50.016;19.890;2024-01-06T11:32:30;95.57;;;40.13;;
19691;SDS011;42748;50.016;19.890;2024-01-06T11:37:36;92.30;;;37.90;;
19691;SDS011;42748;50.016;19.890;2024-01-06T11:45:50;89.17;;;37.23;;
19691;SDS011;42748;50.016;19.890;2024-01-06T11:48:18;88.37;;;37.30;;
19691;SDS011;42748;50.016;19.890;2024-01-06T11:50:58;85.90;;;36.63;;
19691;SDS011;42748;50.016;19.890;2024-01-06T11:53:27;90.57;;;38.23;;
19691;SDS011;42748;50.016;19.890;2024-01-06T11:55:55;81.43;;;36.03;;
19691;SDS011;42748;50.016;19.890;2024-01-06T11:58:23;83.57;;;35.97;;
19691;SDS011;42748;50.016;19.890;2024-01-06T12:00:56;86.93;;;36.63;;
19691;SDS011;42748;50.016;19.890;2024-01-06T12:03:24;87.77;;;36.10;;
19691;SDS011;42748;50.016;19.890;2024-01-06T12:06:02;84.83;;;35.70;;
19691;SDS011;42748;50.016;19.890;2024-01-06T12:08:31;75.30;;;32.00;;
19691;SDS011;42748;50.016;19.890;2024-01-06T12:11:02;80.37;;;36.27;;
19691;SDS011;42748;50.016;19.890;2024-01-06T12:13:30;81.33;;;34.13;;
19691;SDS011;42748;50.016;19.890;2024-01-06T12:15:57;79.90;;;33.93;;
19691;SDS011;42748;50.016;19.890;2024-01-06T12:18:25;80.90;;;33.50;;
19691;SDS011;42748;50.016;19.890;2024-01-06T12:20:53;75.33;;;34.37;;
19691;SDS011;42748;50.016;19.890;2024-01-06T12:23:25;79.17;;;35.03;;
19691;SDS011;42748;50.016;19.890;2024-01-06T12:25:53;76.70;;;34.50;;
19691;SDS011;42748;50.016;19.890;2024-01-06T12:28:21;81.17;;;34.03;;
19691;SDS011;42748;50.016;19.890;2024-01-06T12:30:49;73.60;;;32.50;;
19691;SDS011;42748;50.016;19.890;2024-01-06T12:33:17;70.67;;;32.07;;
19691;SDS011;42748;50.016;19.890;2024-01-06T12:35:44;69.93;;;31.20;;
19691;SDS011;42748;50.016;19.890;2024-01-06T12:38:12;78.03;;;32.67;;
19691;SDS011;42748;50.016;19.890;2024-01-06T12:40:39;68.73;;;31.50;;
19691;SDS011;42748;50.016;19.890;2024-01-06T12:43:07;71.97;;;32.17;;
19691;SDS011;42748;50.016;19.890;2024-01-06T12:45:35;64.50;;;30.17;;
19691;SDS011;42748;50.016;19.890;2024-01-06T12:48:02;67.87;;;29.83;;
19691;SDS011;42748;50.016;19.890;2024-01-06T12:50:30;70.10;;;30.93;;
19691;SDS011;42748;50.016;19.890;2024-01-06T12:52:58;63.90;;;29.80;;
19691;SDS011;42748;50.016;19.890;2024-01-06T12:55:25;62.53;;;27.80;;
19691;SDS011;42748;50.016;19.890;2024-01-06T12:57:53;64.83;;;28.27;;
19691;SDS011;42748;50.016;19.890;2024-01-06T13:00:20;65.70;;;29.33;;
19691;SDS011;42748;50.016;19.890;2024-01-06T13:02:48;66.17;;;29.57;;
19691;SDS011;42748;50.016;19.890;2024-01-06T13:05:15;66.20;;;29.93;;
19691;SDS011;42748;50.016;19.890;2024-01-06T13:07:43;65.27;;;29.93;;
19691;SDS011;42748;50.016;19.890;2024-01-06T13:10:11;66.33;;;29.63;;
19691;SDS011;42748;50.016;19.890;2024-01-06T13:12:38;66.83;;;29.27;;
19691;SDS011;42748;50.016;19.890;2024-01-06T13:15:06;64.20;;;29.17;;
19691;SDS011;42748;50.016;19.890;2024-01-06T13:17:37;69.43;;;29.53;;
19691;SDS011;42748;50.016;19.890;2024-01-06T13:20:05;67.63;;;28.67;;
19691;SDS011;42748;50.016;19.890;2024-01-06T13:22:34;64.83;;;29.07;;
19691;SDS011;42748;50.016;19.890;2024-01-06T13:25:02;64.23;;;29.53;;
19691;SDS011;42748;50.016;19.890;2024-01-06T13:27:30;75.43;;;31.60;;
19691;SDS011;42748;50.016;19.890;2024-01-06T13:29:57;70.70;;;30.93;;
19691;SDS011;42748;50.016;19.890;2024-01-06T13:32:25;72.37;;;31.67;;
19691;SDS011;42748;50.016;19.890;2024-01-06T13:34:53;65.03;;;28.77;;
19691;SDS011;42748;50.016;19.890;2024-01-06T13:37:28;64.83;;;29.53;;
19691;SDS011;42748;50.016;19.890;2024-01-06T13:39:56;69.20;;;29.77;;
19691;SDS011;42748;50.016;19.890;2024-01-06T13:42:24;68.27;;;28.90;;
19691;SDS011;42748;50.016;19.890;2024-01-06T13:44:52;62.13;;;26.77;;
19691;SDS011;42748;50.016;19.890;2024-01-06T13:47:19;66.97;;;27.67;;
19691;SDS011;42748;50.016;19.890;2024-01-06T13:49:47;56.67;;;24.17;;
19691;SDS011;42748;50.016;19.890;2024-01-06T13:52:15;56.10;;;26.07;;
19691;SDS011;42748;50.016;19.890;2024-01-06T13:54:42;60.27;;;26.17;;
19691;SDS011;42748;50.016;19.890;2024-01-06T13:57:10;59.43;;;25.97;;
19691;SDS011;42748;50.016;19.890;2024-01-06T13:59:38;60.80;;;26.50;;
19691;SDS011;42748;50.016;19.890;2024-01-06T14:02:09;63.80;;;27.93;;
19691;SDS011;42748;50.016;19.890;2024-01-06T14:04:37;56.87;;;25.57;;
19691;SDS011;42748;50.016;19.890;2024-01-06T14:07:05;59.63;;;26.20;;
19691;SDS011;42748;50.016;19.890;2024-01-06T14:09:33;62.97;;;27.73;;
19691;SDS011;42748;50.016;19.890;2024-01-06T14:12:00;57.60;;;26.27;;
19691;SDS011;42748;50.016;19.890;2024-01-06T14:14:28;61.73;;;26.13;;
19691;SDS011;42748;50.016;19.890;2024-01-06T14:16:55;55.17;;;24.63;;
19691;SDS011;42748;50.016;19.890;2024-01-06T14:19:23;60.03;;;26.03;;